sensor_id;sensor_type;location;lat;lon;timestamp;P1;durP1;ratioP1;P2;durP2;ratioP2
1366;SDS011;16877;48.810;9.282;2022-07-09T00:01:26;3.57;;;2.43;;
1366;SDS011;16877;48.810;9.282;2022-07-09T00:03:53;3.97;;;2.00;;
1366;SDS011;16877;48.810;9.282;2022-07-09T00:06:22;3.00;;;1.60;;
1366;SDS011;16877;48.810;9.282;2022-07-09T00:08:48;3.63;;;2.13;;
1366;SDS011;16877;48.810;9.282;2022-07-09T00:11:15;3.67;;;2.27;;
1366;SDS011;16877;48.810;9.282;2022-07-09T00:13:41;4.13;;;2.17;;
1366;SDS011;16877;48.810;9.282;2022-07-09T00:16:08;4.77;;;2.50;;
1366;SDS011;16877;48.810;9.282;2022-07-09T00:18:35;3.63;;;1.70;;
1366;SDS011;16877;48.810;9.282;2022-07-09T00:21:01;3.33;;;2.00;;
1366;SDS011;16877;48.810;9.282;2022-07-09T00:23:29;2.97;;;2.13;;
1366;SDS011;16877;48.810;9.282;2022-07-09T00:25:56;11.00;;;1.97;;
1366;SDS011;16877;48.810;9.282;2022-07-09T00:28:23;3.70;;;2.13;;
1366;SDS011;16877;48.810;9.282;2022-07-09T00:30:49;3.60;;;2.40;;
1366;SDS011;16877;48.810;9.282;2022-07-09T00:33:16;2.93;;;2.03;;
1366;SDS011;16877;48.810;9.282;2022-07-09T00:35:43;3.70;;;1.97;;
1366;SDS011;16877;48.810;9.282;2022-07-09T00:38:09;3.27;;;1.80;;
1366;SDS011;16877;48.810;9.282;2022-07-09T00:40:37;4.03;;;1.90;;
1366;SDS011;16877;48.810;9.282;2022-07-09T00:43:14;3.67;;;2.10;;
1366;SDS011;16877;48.810;9.282;2022-07-09T00:45:41;3.17;;;1.83;;
1366;SDS011;16877;48.810;9.282;2022-07-09T00:48:08;5.37;;;2.00;;
1366;SDS011;16877;48.810;9.282;2022-07-09T00:50:35;3.87;;;2.20;;
1366;SDS011;16877;48.810;9.282;2022-07-09T00:53:02;3.80;;;2.60;;
1366;SDS011;16877;48.810;9.282;2022-07-09T00:55:29;4.20;;;1.97;;
1366;SDS011;16877;48.810;9.282;2022-07-09T00:57:57;2.80;;;2.07;;
1366;SDS011;16877;48.810;9.282;2022-07-09T01:00:23;4.73;;;2.40;;
1366;SDS011;16877;48.810;9.282;2022-07-09T01:02:50;4.60;;;2.90;;
1366;SDS011;16877;48.810;9.282;2022-07-09T01:05:17;7.10;;;2.27;;
1366;SDS011;16877;48.810;9.282;2022-07-09T01:07:43;3.40;;;2.00;;
1366;SDS011;16877;48.810;9.282;2022-07-09T01:10:10;3.30;;;2.13;;
1366;SDS011;16877;48.810;9.282;2022-07-09T01:12:37;4.80;;;2.43;;
1366;SDS011;16877;48.810;9.282;2022-07-09T01:15:06;3.67;;;2.37;;
1366;SDS011;16877;48.810;9.282;2022-07-09T01:17:36;4.10;;;2.33;;
1366;SDS011;16877;48.810;9.282;2022-07-09T01:20:04;3.17;;;2.10;;
1366;SDS011;16877;48.810;9.282;2022-07-09T01:22:33;3.23;;;2.10;;
1366;SDS011;16877;48.810;9.282;2022-07-09T01:25:00;3.93;;;2.07;;
1366;SDS011;16877;48.810;9.282;2022-07-09T01:27:26;3.30;;;1.97;;
1366;SDS011;16877;48.810;9.282;2022-07-09T01:29:53;3.83;;;2.40;;
1366;SDS011;16877;48.810;9.282;2022-07-09T01:32:20;3.63;;;2.43;;
1366;SDS011;16877;48.810;9.282;2022-07-09T01:34:47;3.03;;;2.03;;
1366;SDS011;16877;48.810;9.282;2022-07-09T01:37:13;2.70;;;2.20;;
1366;SDS011;16877;48.810;9.282;2022-07-09T01:39:42;3.87;;;2.50;;
1366;SDS011;16877;48.810;9.282;2022-07-09T01:42:16;3.00;;;2.20;;
1366;SDS011;16877;48.810;9.282;2022-07-09T01:44:43;3.97;;;1.93;;
1366;SDS011;16877;48.810;9.282;2022-07-09T01:47:09;5.10;;;2.47;;
1366;SDS011;16877;48.810;9.282;2022-07-09T01:49:36;3.80;;;2.40;;
1366;SDS011;16877;48.810;9.282;2022-07-09T01:52:03;4.60;;;2.97;;
1366;SDS011;16877;48.810;9.282;2022-07-09T01:54:31;3.10;;;2.20;;
1366;SDS011;16877;48.810;9.282;2022-07-09T01:56:59;3.40;;;2.43;;
1366;SDS011;16877;48.810;9.282;2022-07-09T01:59:26;2.93;;;1.97;;
1366;SDS011;16877;48.810;9.282;2022-07-09T02:01:52;3.47;;;2.60;;
1366;SDS011;16877;48.810;9.282;2022-07-09T02:04:19;4.20;;;2.60;;
1366;SDS011;16877;48.810;9.282;2022-07-09T02:06:46;3.10;;;2.00;;
1366;SDS011;16877;48.810;9.282;2022-07-09T02:09:12;3.57;;;2.50;;
1366;SDS011;16877;48.810;9.282;2022-07-09T02:11:39;3.30;;;2.07;;
1366;SDS011;16877;48.810;9.282;2022-07-09T02:14:07;3.80;;;2.43;;
1366;SDS011;16877;48.810;9.282;2022-07-09T02:16:34;3.77;;;2.00;;
1366;SDS011;16877;48.810;9.282;2022-07-09T02:19:01;3.97;;;2.70;;
1366;SDS011;16877;48.810;9.282;2022-07-09T02:21:27;3.80;;;2.47;;
1366;SDS011;16877;48.810;9.282;2022-07-09T02:23:54;3.67;;;1.70;;
1366;SDS011;16877;48.810;9.282;2022-07-09T02:26:23;5.07;;;2.63;;
1366;SDS011;16877;48.810;9.282;2022-07-09T02:28:51;3.07;;;2.17;;
1366;SDS011;16877;48.810;9.282;2022-07-09T02:31:19;3.50;;;2.00;;
1366;SDS011;16877;48.810;9.282;2022-07-09T02:33:45;3.90;;;2.13;;
1366;SDS011;16877;48.810;9.282;2022-07-09T02:36:12;2.80;;;2.10;;
1366;SDS011;16877;48.810;9.282;2022-07-09T02:38:39;3.27;;;2.10;;
1366;SDS011;16877;48.810;9.282;2022-07-09T02:41:05;3.83;;;1.87;;
1366;SDS011;16877;48.810;9.282;2022-07-09T02:43:32;5.37;;;2.70;;
1366;SDS011;16877;48.810;9.282;2022-07-09T02:45:59;3.87;;;2.13;;
1366;SDS011;16877;48.810;9.282;2022-07-09T02:48:28;4.50;;;2.23;;
1366;SDS011;16877;48.810;9.282;2022-07-09T02:50:55;5.50;;;2.30;;
1366;SDS011;16877;48.810;9.282;2022-07-09T02:53:21;2.80;;;1.93;;
1366;SDS011;16877;48.810;9.282;2022-07-09T02:55:48;3.40;;;2.17;;
1366;SDS011;16877;48.810;9.282;2022-07-09T02:58:15;3.30;;;1.73;;
1366;SDS011;16877;48.810;9.282;2022-07-09T03:00:41;4.67;;;2.40;;
1366;SDS011;16877;48.810;9.282;2022-07-09T03:03:08;3.70;;;2.17;;
1366;SDS011;16877;48.810;9.282;2022-07-09T03:05:36;3.60;;;2.00;;
1366;SDS011;16877;48.810;9.282;2022-07-09T03:08:03;3.07;;;2.03;;
1366;SDS011;16877;48.810;9.282;2022-07-09T03:10:33;4.37;;;2.07;;
1366;SDS011;16877;48.810;9.282;2022-07-09T03:13:00;3.70;;;1.87;;
1366;SDS011;16877;48.810;9.282;2022-07-09T03:15:26;3.40;;;1.70;;
1366;SDS011;16877;48.810;9.282;2022-07-09T03:17:53;3.43;;;2.23;;
1366;SDS011;16877;48.810;9.282;2022-07-09T03:20:20;3.37;;;1.90;;
1366;SDS011;16877;48.810;9.282;2022-07-09T03:22:48;3.93;;;2.03;;
1366;SDS011;16877;48.810;9.282;2022-07-09T03:25:14;2.70;;;2.20;;
1366;SDS011;16877;48.810;9.282;2022-07-09T03:27:41;2.87;;;1.90;;
1366;SDS011;16877;48.810;9.282;2022-07-09T03:30:08;4.53;;;1.97;;
1366;SDS011;16877;48.810;9.282;2022-07-09T03:32:36;4.30;;;2.47;;
1366;SDS011;16877;48.810;9.282;2022-07-09T03:35:03;4.20;;;2.10;;
1366;SDS011;16877;48.810;9.282;2022-07-09T03:37:30;3.60;;;1.73;;
1366;SDS011;16877;48.810;9.282;2022-07-09T03:39:58;2.93;;;1.80;;
1366;SDS011;16877;48.810;9.282;2022-07-09T03:42:24;3.83;;;2.03;;
1366;SDS011;16877;48.810;9.282;2022-07-09T03:44:51;3.50;;;2.43;;
1366;SDS011;16877;48.810;9.282;2022-07-09T03:47:18;3.30;;;2.00;;
1366;SDS011;16877;48.810;9.282;2022-07-09T03:49:44;3.50;;;1.70;;
1366;SDS011;16877;48.810;9.282;2022-07-09T03:52:11;2.57;;;1.50;;
1366;SDS011;16877;48.810;9.282;2022-07-09T03:54:38;2.80;;;1.70;;
1366;SDS011;16877;48.810;9.282;2022-07-09T03:57:06;2.47;;;1.73;;
1366;SDS011;16877;48.810;9.282;2022-07-09T03:59:33;2.80;;;1.90;;
1366;SDS011;16877;48.810;9.282;2022-07-09T04:02:00;3.63;;;1.93;;
1366;SDS011;16877;48.810;9.282;2022-07-09T04:04:26;3.20;;;1.97;;
1366;SDS011;16877;48.810;9.282;2022-07-09T04:06:53;2.87;;;1.73;;
1366;SDS011;16877;48.810;9.282;2022-07-09T04:09:20;3.80;;;2.27;;
1366;SDS011;16877;48.810;9.282;2022-07-09T04:11:47;3.00;;;1.80;;
1366;SDS011;16877;48.810;9.282;2022-07-09T04:14:15;2.60;;;1.50;;
1366;SDS011;16877;48.810;9.282;2022-07-09T04:16:44;3.37;;;1.83;;
1366;SDS011;16877;48.810;9.282;2022-07-09T04:19:11;4.67;;;2.10;;
1366;SDS011;16877;48.810;9.282;2022-07-09T04:21:38;6.00;;;2.60;;
1366;SDS011;16877;48.810;9.282;2022-07-09T04:24:04;4.20;;;1.83;;
1366;SDS011;16877;48.810;9.282;2022-07-09T04:26:31;4.00;;;2.20;;
1366;SDS011;16877;48.810;9.282;2022-07-09T04:28:58;2.50;;;1.90;;
1366;SDS011;16877;48.810;9.282;2022-07-09T04:31:26;2.20;;;1.67;;
1366;SDS011;16877;48.810;9.282;2022-07-09T04:33:53;2.60;;;1.87;;
1366;SDS011;16877;48.810;9.282;2022-07-09T04:36:19;2.80;;;2.07;;
1366;SDS011;16877;48.810;9.282;2022-07-09T04:38:46;2.70;;;1.80;;
1366;SDS011;16877;48.810;9.282;2022-07-09T04:41:13;2.60;;;1.40;;
1366;SDS011;16877;48.810;9.282;2022-07-09T04:43:40;3.30;;;2.07;;
1366;SDS011;16877;48.810;9.282;2022-07-09T04:46:07;2.90;;;1.77;;
1366;SDS011;16877;48.810;9.282;2022-07-09T04:48:35;2.50;;;1.37;;
1366;SDS011;16877;48.810;9.282;2022-07-09T04:51:01;4.60;;;2.33;;
1366;SDS011;16877;48.810;9.282;2022-07-09T04:53:28;2.80;;;1.97;;
1366;SDS011;16877;48.810;9.282;2022-07-09T04:55:55;3.77;;;1.97;;
1366;SDS011;16877;48.810;9.282;2022-07-09T04:58:22;3.57;;;2.00;;
1366;SDS011;16877;48.810;9.282;2022-07-09T05:00:48;3.93;;;2.10;;
1366;SDS011;16877;48.810;9.282;2022-07-09T05:03:15;3.60;;;2.37;;
1366;SDS011;16877;48.810;9.282;2022-07-09T05:05:43;3.67;;;1.67;;
1366;SDS011;16877;48.810;9.282;2022-07-09T05:08:10;3.13;;;2.03;;
1366;SDS011;16877;48.810;9.282;2022-07-09T05:10:37;2.23;;;1.50;;
1366;SDS011;16877;48.810;9.282;2022-07-09T05:13:03;3.20;;;1.73;;
1366;SDS011;16877;48.810;9.282;2022-07-09T05:15:30;3.57;;;2.20;;
1366;SDS011;16877;48.810;9.282;2022-07-09T05:17:57;3.90;;;1.73;;
1366;SDS011;16877;48.810;9.282;2022-07-09T05:20:24;3.50;;;2.10;;
1366;SDS011;16877;48.810;9.282;2022-07-09T05:22:53;4.40;;;1.97;;
1366;SDS011;16877;48.810;9.282;2022-07-09T05:25:20;2.97;;;1.90;;
1366;SDS011;16877;48.810;9.282;2022-07-09T05:27:47;4.33;;;2.20;;
1366;SDS011;16877;48.810;9.282;2022-07-09T05:30:14;3.80;;;1.80;;
1366;SDS011;16877;48.810;9.282;2022-07-09T05:32:42;2.87;;;1.77;;
1366;SDS011;16877;48.810;9.282;2022-07-09T05:35:09;3.13;;;1.60;;
1366;SDS011;16877;48.810;9.282;2022-07-09T05:37:40;3.50;;;2.40;;
1366;SDS011;16877;48.810;9.282;2022-07-09T05:40:10;4.03;;;1.93;;
1366;SDS011;16877;48.810;9.282;2022-07-09T05:42:37;3.27;;;1.87;;
1366;SDS011;16877;48.810;9.282;2022-07-09T05:45:05;2.57;;;1.73;;
1366;SDS011;16877;48.810;9.282;2022-07-09T05:47:32;2.73;;;1.70;;
1366;SDS011;16877;48.810;9.282;2022-07-09T05:49:59;3.80;;;1.83;;
1366;SDS011;16877;48.810;9.282;2022-07-09T05:52:26;2.60;;;1.50;;
1366;SDS011;16877;48.810;9.282;2022-07-09T05:54:52;2.70;;;1.77;;
1366;SDS011;16877;48.810;9.282;2022-07-09T05:57:20;3.93;;;2.07;;
1366;SDS011;16877;48.810;9.282;2022-07-09T05:59:47;2.80;;;1.70;;
1366;SDS011;16877;48.810;9.282;2022-07-09T06:02:14;3.20;;;2.17;;
1366;SDS011;16877;48.810;9.282;2022-07-09T06:04:41;2.83;;;1.80;;
1366;SDS011;16877;48.810;9.282;2022-07-09T06:07:07;3.87;;;1.80;;
1366;SDS011;16877;48.810;9.282;2022-07-09T06:09:34;2.80;;;1.90;;
1366;SDS011;16877;48.810;9.282;2022-07-09T06:12:01;3.40;;;1.50;;
1366;SDS011;16877;48.810;9.282;2022-07-09T06:14:30;3.83;;;2.00;;
1366;SDS011;16877;48.810;9.282;2022-07-09T06:16:57;2.40;;;1.60;;
1366;SDS011;16877;48.810;9.282;2022-07-09T06:19:30;2.83;;;1.70;;
1366;SDS011;16877;48.810;9.282;2022-07-09T06:21:57;4.10;;;2.20;;
1366;SDS011;16877;48.810;9.282;2022-07-09T06:24:24;3.20;;;1.73;;
1366;SDS011;16877;48.810;9.282;2022-07-09T06:26:51;2.93;;;1.93;;
1366;SDS011;16877;48.810;9.282;2022-07-09T06:29:18;3.90;;;1.80;;
1366;SDS011;16877;48.810;9.282;2022-07-09T06:31:46;2.57;;;1.57;;
1366;SDS011;16877;48.810;9.282;2022-07-09T06:34:13;4.60;;;2.63;;
1366;SDS011;16877;48.810;9.282;2022-07-09T06:36:39;3.67;;;2.10;;
1366;SDS011;16877;48.810;9.282;2022-07-09T06:39:09;4.30;;;1.90;;
1366;SDS011;16877;48.810;9.282;2022-07-09T06:41:53;4.07;;;2.10;;
1366;SDS011;16877;48.810;9.282;2022-07-09T06:44:20;2.63;;;1.70;;
1366;SDS011;16877;48.810;9.282;2022-07-09T06:46:48;3.10;;;1.77;;
1366;SDS011;16877;48.810;9.282;2022-07-09T06:49:14;3.80;;;2.37;;
1366;SDS011;16877;48.810;9.282;2022-07-09T06:51:41;3.73;;;1.90;;
1366;SDS011;16877;48.810;9.282;2022-07-09T06:54:08;3.23;;;1.63;;
1366;SDS011;16877;48.810;9.282;2022-07-09T06:56:35;3.60;;;2.03;;
1366;SDS011;16877;48.810;9.282;2022-07-09T06:59:02;3.63;;;1.83;;
1366;SDS011;16877;48.810;9.282;2022-07-09T07:01:28;3.07;;;1.90;;
1366;SDS011;16877;48.810;9.282;2022-07-09T07:03:56;4.27;;;1.87;;
1366;SDS011;16877;48.810;9.282;2022-07-09T07:06:23;3.10;;;1.20;;
1366;SDS011;16877;48.810;9.282;2022-07-09T07:08:50;5.83;;;2.17;;
1366;SDS011;16877;48.810;9.282;2022-07-09T07:11:16;3.80;;;2.00;;
1366;SDS011;16877;48.810;9.282;2022-07-09T07:13:43;3.40;;;1.77;;
1366;SDS011;16877;48.810;9.282;2022-07-09T07:16:10;3.40;;;2.10;;
1366;SDS011;16877;48.810;9.282;2022-07-09T07:18:36;3.30;;;1.63;;
1366;SDS011;16877;48.810;9.282;2022-07-09T07:21:05;3.30;;;1.63;;
1366;SDS011;16877;48.810;9.282;2022-07-09T07:23:31;3.20;;;1.63;;
1366;SDS011;16877;48.810;9.282;2022-07-09T07:25:58;3.77;;;2.10;;
1366;SDS011;16877;48.810;9.282;2022-07-09T07:28:25;3.47;;;2.00;;
1366;SDS011;16877;48.810;9.282;2022-07-09T07:30:52;3.67;;;2.10;;
1366;SDS011;16877;48.810;9.282;2022-07-09T07:33:19;3.17;;;1.80;;
1366;SDS011;16877;48.810;9.282;2022-07-09T07:35:46;2.73;;;1.70;;
1366;SDS011;16877;48.810;9.282;2022-07-09T07:38:15;3.20;;;1.77;;
1366;SDS011;16877;48.810;9.282;2022-07-09T07:40:41;7.10;;;2.10;;
1366;SDS011;16877;48.810;9.282;2022-07-09T07:43:09;3.20;;;1.90;;
1366;SDS011;16877;48.810;9.282;2022-07-09T07:45:36;3.27;;;2.20;;
1366;SDS011;16877;48.810;9.282;2022-07-09T07:48:03;3.43;;;2.03;;
1366;SDS011;16877;48.810;9.282;2022-07-09T07:50:31;3.33;;;2.03;;
1366;SDS011;16877;48.810;9.282;2022-07-09T07:52:57;2.70;;;1.97;;
1366;SDS011;16877;48.810;9.282;2022-07-09T07:55:26;3.63;;;1.60;;
1366;SDS011;16877;48.810;9.282;2022-07-09T07:57:52;2.60;;;1.50;;
1366;SDS011;16877;48.810;9.282;2022-07-09T08:00:19;2.80;;;1.97;;
1366;SDS011;16877;48.810;9.282;2022-07-09T08:02:47;2.37;;;1.60;;
1366;SDS011;16877;48.810;9.282;2022-07-09T08:05:13;5.40;;;1.97;;
1366;SDS011;16877;48.810;9.282;2022-07-09T08:07:40;4.73;;;2.13;;
1366;SDS011;16877;48.810;9.282;2022-07-09T08:10:07;3.50;;;1.80;;
1366;SDS011;16877;48.810;9.282;2022-07-09T08:12:36;5.00;;;1.83;;
1366;SDS011;16877;48.810;9.282;2022-07-09T08:15:03;2.40;;;1.27;;
1366;SDS011;16877;48.810;9.282;2022-07-09T08:17:30;3.57;;;1.90;;
1366;SDS011;16877;48.810;9.282;2022-07-09T08:19:57;2.87;;;1.90;;
1366;SDS011;16877;48.810;9.282;2022-07-09T08:22:23;3.23;;;2.00;;
1366;SDS011;16877;48.810;9.282;2022-07-09T08:24:50;2.93;;;1.53;;
1366;SDS011;16877;48.810;9.282;2022-07-09T08:27:17;2.70;;;1.60;;
1366;SDS011;16877;48.810;9.282;2022-07-09T08:29:45;3.37;;;2.10;;
1366;SDS011;16877;48.810;9.282;2022-07-09T08:32:13;2.93;;;1.67;;
1366;SDS011;16877;48.810;9.282;2022-07-09T08:34:40;3.60;;;2.10;;
1366;SDS011;16877;48.810;9.282;2022-07-09T08:37:07;2.70;;;2.00;;
1366;SDS011;16877;48.810;9.282;2022-07-09T08:39:34;3.40;;;1.60;;
1366;SDS011;16877;48.810;9.282;2022-07-09T08:42:00;2.33;;;1.67;;
1366;SDS011;16877;48.810;9.282;2022-07-09T08:44:29;3.60;;;2.00;;
1366;SDS011;16877;48.810;9.282;2022-07-09T08:46:59;3.13;;;1.60;;
1366;SDS011;16877;48.810;9.282;2022-07-09T08:49:27;3.53;;;1.77;;
1366;SDS011;16877;48.810;9.282;2022-07-09T08:51:54;3.33;;;2.20;;
1366;SDS011;16877;48.810;9.282;2022-07-09T08:54:21;3.77;;;2.03;;
1366;SDS011;16877;48.810;9.282;2022-07-09T08:56:49;2.70;;;1.80;;
1366;SDS011;16877;48.810;9.282;2022-07-09T08:59:17;7.23;;;2.80;;
1366;SDS011;16877;48.810;9.282;2022-07-09T09:01:44;2.80;;;1.90;;
1366;SDS011;16877;48.810;9.282;2022-07-09T09:04:12;4.87;;;1.93;;
1366;SDS011;16877;48.810;9.282;2022-07-09T09:06:38;3.53;;;2.00;;
1366;SDS011;16877;48.810;9.282;2022-07-09T09:09:06;3.10;;;1.57;;
1366;SDS011;16877;48.810;9.282;2022-07-09T09:11:36;4.63;;;2.00;;
1366;SDS011;16877;48.810;9.282;2022-07-09T09:14:03;3.70;;;1.67;;
1366;SDS011;16877;48.810;9.282;2022-07-09T09:16:29;2.73;;;1.60;;
1366;SDS011;16877;48.810;9.282;2022-07-09T09:18:56;3.17;;;1.87;;
1366;SDS011;16877;48.810;9.282;2022-07-09T09:21:25;4.73;;;2.00;;
1366;SDS011;16877;48.810;9.282;2022-07-09T09:23:52;2.30;;;1.37;;
1366;SDS011;16877;48.810;9.282;2022-07-09T09:26:21;2.90;;;1.50;;
1366;SDS011;16877;48.810;9.282;2022-07-09T09:28:50;4.37;;;1.63;;
1366;SDS011;16877;48.810;9.282;2022-07-09T09:31:18;2.80;;;1.47;;
1366;SDS011;16877;48.810;9.282;2022-07-09T09:33:49;3.70;;;1.50;;
1366;SDS011;16877;48.810;9.282;2022-07-09T09:36:31;2.40;;;1.50;;
1366;SDS011;16877;48.810;9.282;2022-07-09T09:39:09;2.30;;;1.20;;
1366;SDS011;16877;48.810;9.282;2022-07-09T09:41:36;3.90;;;1.70;;
1366;SDS011;16877;48.810;9.282;2022-07-09T09:44:04;3.33;;;1.80;;
1366;SDS011;16877;48.810;9.282;2022-07-09T09:46:34;2.67;;;1.43;;
1366;SDS011;16877;48.810;9.282;2022-07-09T09:49:01;3.10;;;1.80;;
1366;SDS011;16877;48.810;9.282;2022-07-09T09:51:32;2.70;;;1.40;;
1366;SDS011;16877;48.810;9.282;2022-07-09T09:54:02;2.83;;;1.67;;
1366;SDS011;16877;48.810;9.282;2022-07-09T09:56:29;6.03;;;1.80;;
1366;SDS011;16877;48.810;9.282;2022-07-09T09:58:56;2.40;;;1.40;;
1366;SDS011;16877;48.810;9.282;2022-07-09T10:01:25;2.30;;;1.00;;
1366;SDS011;16877;48.810;9.282;2022-07-09T10:03:52;2.30;;;1.20;;
1366;SDS011;16877;48.810;9.282;2022-07-09T10:06:19;3.03;;;1.73;;
1366;SDS011;16877;48.810;9.282;2022-07-09T10:08:47;2.47;;;1.10;;
1366;SDS011;16877;48.810;9.282;2022-07-09T10:11:14;3.30;;;1.47;;
1366;SDS011;16877;48.810;9.282;2022-07-09T10:13:49;2.27;;;1.20;;
1366;SDS011;16877;48.810;9.282;2022-07-09T10:16:16;2.83;;;1.33;;
1366;SDS011;16877;48.810;9.282;2022-07-09T10:18:49;3.50;;;1.40;;
1366;SDS011;16877;48.810;9.282;2022-07-09T10:21:16;2.53;;;1.20;;
1366;SDS011;16877;48.810;9.282;2022-07-09T10:23:49;2.50;;;1.10;;
1366;SDS011;16877;48.810;9.282;2022-07-09T10:26:16;3.07;;;1.33;;
1366;SDS011;16877;48.810;9.282;2022-07-09T10:28:43;2.63;;;1.30;;
1366;SDS011;16877;48.810;9.282;2022-07-09T10:31:10;2.83;;;1.30;;
1366;SDS011;16877;48.810;9.282;2022-07-09T10:33:45;2.37;;;1.40;;
1366;SDS011;16877;48.810;9.282;2022-07-09T10:36:18;3.10;;;1.60;;
1366;SDS011;16877;48.810;9.282;2022-07-09T10:38:52;4.20;;;1.20;;
1366;SDS011;16877;48.810;9.282;2022-07-09T10:41:21;3.23;;;1.03;;
1366;SDS011;16877;48.810;9.282;2022-07-09T10:43:50;2.63;;;0.93;;
1366;SDS011;16877;48.810;9.282;2022-07-09T10:46:17;2.93;;;1.40;;
1366;SDS011;16877;48.810;9.282;2022-07-09T10:48:45;2.60;;;1.37;;
1366;SDS011;16877;48.810;9.282;2022-07-09T10:51:16;2.50;;;1.23;;
1366;SDS011;16877;48.810;9.282;2022-07-09T10:53:44;2.90;;;1.27;;
1366;SDS011;16877;48.810;9.282;2022-07-09T10:56:12;2.53;;;1.23;;
1366;SDS011;16877;48.810;9.282;2022-07-09T10:58:45;2.67;;;0.97;;
1366;SDS011;16877;48.810;9.282;2022-07-09T11:01:18;2.80;;;1.20;;
1366;SDS011;16877;48.810;9.282;2022-07-09T11:03:47;2.90;;;1.47;;
1366;SDS011;16877;48.810;9.282;2022-07-09T11:06:15;3.13;;;1.70;;
1366;SDS011;16877;48.810;9.282;2022-07-09T11:08:42;2.60;;;1.33;;
1366;SDS011;16877;48.810;9.282;2022-07-09T11:11:09;2.50;;;1.20;;
1366;SDS011;16877;48.810;9.282;2022-07-09T11:13:37;3.57;;;1.40;;
1366;SDS011;16877;48.810;9.282;2022-07-09T11:16:04;2.73;;;1.23;;
1366;SDS011;16877;48.810;9.282;2022-07-09T11:18:31;2.87;;;1.10;;
1366;SDS011;16877;48.810;9.282;2022-07-09T11:20:57;2.67;;;1.47;;
1366;SDS011;16877;48.810;9.282;2022-07-09T11:23:24;2.90;;;1.20;;
1366;SDS011;16877;48.810;9.282;2022-07-09T11:25:51;2.53;;;1.17;;
1366;SDS011;16877;48.810;9.282;2022-07-09T11:28:18;2.67;;;1.10;;
1366;SDS011;16877;48.810;9.282;2022-07-09T11:30:56;3.30;;;1.13;;
1366;SDS011;16877;48.810;9.282;2022-07-09T11:33:24;2.47;;;1.07;;
1366;SDS011;16877;48.810;9.282;2022-07-09T11:35:51;2.47;;;1.30;;
1366;SDS011;16877;48.810;9.282;2022-07-09T11:38:17;2.77;;;1.33;;
1366;SDS011;16877;48.810;9.282;2022-07-09T11:40:44;2.47;;;1.10;;
1366;SDS011;16877;48.810;9.282;2022-07-09T11:43:14;3.27;;;1.63;;
1366;SDS011;16877;48.810;9.282;2022-07-09T11:45:50;2.90;;;1.47;;
1366;SDS011;16877;48.810;9.282;2022-07-09T11:48:19;2.47;;;1.30;;
1366;SDS011;16877;48.810;9.282;2022-07-09T11:50:46;2.07;;;1.00;;
1366;SDS011;16877;48.810;9.282;2022-07-09T11:53:20;1.87;;;1.00;;
1366;SDS011;16877;48.810;9.282;2022-07-09T11:55:56;2.67;;;1.57;;
1366;SDS011;16877;48.810;9.282;2022-07-09T11:58:25;2.87;;;1.40;;
1366;SDS011;16877;48.810;9.282;2022-07-09T12:00:53;3.37;;;1.60;;
1366;SDS011;16877;48.810;9.282;2022-07-09T12:03:23;2.33;;;0.90;;
1366;SDS011;16877;48.810;9.282;2022-07-09T12:05:50;3.13;;;1.20;;
1366;SDS011;16877;48.810;9.282;2022-07-09T12:08:25;2.10;;;1.10;;
1366;SDS011;16877;48.810;9.282;2022-07-09T12:10:53;2.30;;;0.97;;
1366;SDS011;16877;48.810;9.282;2022-07-09T12:13:20;2.40;;;1.03;;
1366;SDS011;16877;48.810;9.282;2022-07-09T12:15:47;3.53;;;1.60;;
1366;SDS011;16877;48.810;9.282;2022-07-09T12:18:15;2.87;;;1.20;;
1366;SDS011;16877;48.810;9.282;2022-07-09T12:20:42;2.23;;;0.87;;
1366;SDS011;16877;48.810;9.282;2022-07-09T12:23:09;2.87;;;1.33;;
1366;SDS011;16877;48.810;9.282;2022-07-09T12:25:36;2.17;;;0.90;;
1366;SDS011;16877;48.810;9.282;2022-07-09T12:28:02;1.90;;;0.80;;
1366;SDS011;16877;48.810;9.282;2022-07-09T12:30:30;1.87;;;0.77;;
1366;SDS011;16877;48.810;9.282;2022-07-09T12:32:57;2.90;;;1.10;;
1366;SDS011;16877;48.810;9.282;2022-07-09T12:35:25;1.97;;;0.90;;
1366;SDS011;16877;48.810;9.282;2022-07-09T12:37:52;2.50;;;1.00;;
1366;SDS011;16877;48.810;9.282;2022-07-09T12:40:21;2.47;;;1.10;;
1366;SDS011;16877;48.810;9.282;2022-07-09T12:42:47;2.33;;;1.17;;
1366;SDS011;16877;48.810;9.282;2022-07-09T12:45:14;3.30;;;1.30;;
1366;SDS011;16877;48.810;9.282;2022-07-09T12:47:41;3.93;;;1.13;;
1366;SDS011;16877;48.810;9.282;2022-07-09T12:50:07;3.10;;;1.43;;
1366;SDS011;16877;48.810;9.282;2022-07-09T12:52:37;3.00;;;1.23;;
1366;SDS011;16877;48.810;9.282;2022-07-09T12:55:04;2.23;;;0.97;;
1366;SDS011;16877;48.810;9.282;2022-07-09T12:57:32;2.80;;;1.40;;
1366;SDS011;16877;48.810;9.282;2022-07-09T12:59:59;2.10;;;0.90;;
1366;SDS011;16877;48.810;9.282;2022-07-09T13:02:27;2.10;;;1.07;;
1366;SDS011;16877;48.810;9.282;2022-07-09T13:04:53;2.00;;;0.90;;
1366;SDS011;16877;48.810;9.282;2022-07-09T13:07:20;2.93;;;1.33;;
1366;SDS011;16877;48.810;9.282;2022-07-09T13:09:48;2.87;;;0.83;;
1366;SDS011;16877;48.810;9.282;2022-07-09T13:12:17;3.03;;;1.20;;
1366;SDS011;16877;48.810;9.282;2022-07-09T13:14:43;3.03;;;1.10;;
1366;SDS011;16877;48.810;9.282;2022-07-09T13:17:10;2.90;;;1.17;;
1366;SDS011;16877;48.810;9.282;2022-07-09T13:19:37;2.27;;;1.10;;
1366;SDS011;16877;48.810;9.282;2022-07-09T13:22:04;3.10;;;1.10;;
1366;SDS011;16877;48.810;9.282;2022-07-09T13:24:32;2.03;;;1.00;;
1366;SDS011;16877;48.810;9.282;2022-07-09T13:27:00;2.10;;;1.03;;
1366;SDS011;16877;48.810;9.282;2022-07-09T13:29:32;2.43;;;1.13;;
1366;SDS011;16877;48.810;9.282;2022-07-09T13:31:59;2.73;;;1.00;;
1366;SDS011;16877;48.810;9.282;2022-07-09T13:34:26;4.13;;;1.53;;
1366;SDS011;16877;48.810;9.282;2022-07-09T13:36:52;2.30;;;1.07;;
1366;SDS011;16877;48.810;9.282;2022-07-09T13:39:19;2.57;;;1.00;;
1366;SDS011;16877;48.810;9.282;2022-07-09T13:41:46;2.70;;;1.00;;
1366;SDS011;16877;48.810;9.282;2022-07-09T13:44:14;3.47;;;0.93;;
1366;SDS011;16877;48.810;9.282;2022-07-09T13:46:41;3.07;;;1.50;;
1366;SDS011;16877;48.810;9.282;2022-07-09T13:49:07;2.83;;;0.80;;
1366;SDS011;16877;48.810;9.282;2022-07-09T13:51:34;2.20;;;1.00;;
1366;SDS011;16877;48.810;9.282;2022-07-09T13:54:01;2.50;;;0.90;;
1366;SDS011;16877;48.810;9.282;2022-07-09T13:56:27;2.20;;;0.93;;
1366;SDS011;16877;48.810;9.282;2022-07-09T13:58:54;2.10;;;0.87;;
1366;SDS011;16877;48.810;9.282;2022-07-09T14:01:22;2.43;;;0.93;;
1366;SDS011;16877;48.810;9.282;2022-07-09T14:03:49;3.27;;;1.07;;
1366;SDS011;16877;48.810;9.282;2022-07-09T14:06:15;2.30;;;0.90;;
1366;SDS011;16877;48.810;9.282;2022-07-09T14:08:42;4.63;;;1.50;;
1366;SDS011;16877;48.810;9.282;2022-07-09T14:11:09;2.77;;;1.23;;
1366;SDS011;16877;48.810;9.282;2022-07-09T14:13:35;2.63;;;1.27;;
1366;SDS011;16877;48.810;9.282;2022-07-09T14:16:02;2.87;;;1.40;;
1366;SDS011;16877;48.810;9.282;2022-07-09T14:18:30;2.00;;;1.00;;
1366;SDS011;16877;48.810;9.282;2022-07-09T14:20:57;2.73;;;1.07;;
1366;SDS011;16877;48.810;9.282;2022-07-09T14:23:24;2.93;;;0.97;;
1366;SDS011;16877;48.810;9.282;2022-07-09T14:25:51;2.93;;;1.30;;
1366;SDS011;16877;48.810;9.282;2022-07-09T14:28:17;2.63;;;1.10;;
1366;SDS011;16877;48.810;9.282;2022-07-09T14:30:44;2.30;;;1.20;;
1366;SDS011;16877;48.810;9.282;2022-07-09T14:33:11;2.63;;;1.00;;
1366;SDS011;16877;48.810;9.282;2022-07-09T14:35:40;3.10;;;1.20;;
1366;SDS011;16877;48.810;9.282;2022-07-09T14:38:06;2.30;;;1.10;;
1366;SDS011;16877;48.810;9.282;2022-07-09T14:40:33;1.90;;;1.00;;
1366;SDS011;16877;48.810;9.282;2022-07-09T14:43:00;2.17;;;1.20;;
1366;SDS011;16877;48.810;9.282;2022-07-09T14:45:27;3.87;;;1.27;;
1366;SDS011;16877;48.810;9.282;2022-07-09T14:47:54;2.40;;;1.20;;
1366;SDS011;16877;48.810;9.282;2022-07-09T14:50:21;3.63;;;1.73;;
1366;SDS011;16877;48.810;9.282;2022-07-09T14:52:49;2.80;;;1.20;;
1366;SDS011;16877;48.810;9.282;2022-07-09T14:55:16;2.20;;;1.20;;
1366;SDS011;16877;48.810;9.282;2022-07-09T14:57:42;2.30;;;1.50;;
1366;SDS011;16877;48.810;9.282;2022-07-09T15:00:09;2.83;;;1.07;;
1366;SDS011;16877;48.810;9.282;2022-07-09T15:02:37;2.07;;;1.10;;